CYAW/YAW METAR and TAF weather

Enter ICAO airport designator
Station Type Date Time Source
CYAW METAR 2018/04/26 15:00 UTC NOAA

CYAW 261500Z 13025G33KT 3/4SM RA BR OVC002 10/10 A2984 RMK FG2ST6 DA-221FT SLP106


Station Type Date Time Source
CYAW Decoded METAR 2018/04/26 15:00 UTC NOAA

Shearwater, N. S., Canada (CYAW) 44-38N 063-30W 51M
Apr 26, 2018 - 11:00 AM EDT / 2018.04.26 1500 UTC
Wind: from the SE (130 degrees) at 29 MPH (25 KT) gusting to 38 MPH (33 KT):0
Visibility: 3/4 mile(s):0
Sky conditions: overcast
Weather: rain; mist
Temperature: 50 F (10 C)
Dew Point: 50 F (10 C)
Relative Humidity: 100%
Pressure (altimeter): 29.84 in. Hg (1010 hPa)
ob: CYAW 261500Z 13025G33KT 3/4SM RA BR OVC002 10/10 A2984 RMK FG2ST6 DA-221FT SLP106
cycle: 15

Station Type Date Time Source
CYAW TAF 2018/04/26 13:00 UTC NOAA

TAF CYAW 261310Z 2613/2624 14015G25KT 1SM -RA BR VV002
TEMPO 2613/2620 6SM -RA BR SCT003 OVC015
BECMG 2613/2615 15025G35KT
FM262000 17015G25KT 1/2SM -DZ FG VV002
TEMPO 2620/2624 2SM -SHRA BR SCT002 OVC010
RMK NXT FCST BY 261800Z


Example: see airport list